createdAt,value
2023-02-12T00:01:43.256Z,38.53
2023-02-12T00:05:08.382Z,42.27
2023-02-12T00:08:32.266Z,45.50
2023-02-12T00:11:57.346Z,47.80
2023-02-12T00:15:21.297Z,41.57
2023-02-12T00:18:44.923Z,40.90
2023-02-12T00:22:08.507Z,40.00
2023-02-12T00:25:32.088Z,43.40
2023-02-12T00:28:57.200Z,48.03
2023-02-12T00:32:20.944Z,43.00
2023-02-12T00:35:44.554Z,39.93
2023-02-12T00:39:08.108Z,38.27
2023-02-12T00:42:32.530Z,45.43
2023-02-12T00:45:57.963Z,46.53
2023-02-12T00:49:23.862Z,39.50
2023-02-12T00:52:47.399Z,46.13
2023-02-12T00:56:10.991Z,34.90
2023-02-12T00:59:36.391Z,38.60
2023-02-12T01:03:01.379Z,39.60
2023-02-12T01:06:25.060Z,42.17
2023-02-12T01:09:48.783Z,36.03
2023-02-12T01:13:13.762Z,36.13
2023-02-12T01:16:37.666Z,37.17
2023-02-12T01:20:02.662Z,36.70
2023-02-12T01:23:27.067Z,38.53
2023-02-12T01:26:50.614Z,37.40
2023-02-12T01:30:16.230Z,40.23
2023-02-12T01:33:40.476Z,45.13
2023-02-12T01:37:05.679Z,40.70
2023-02-12T01:40:29.291Z,37.60
2023-02-12T01:44:15.404Z,41.33
2023-02-12T01:47:39.347Z,41.07
2023-02-12T01:51:04.386Z,34.10
2023-02-12T01:54:30.160Z,38.23
2023-02-12T01:57:53.769Z,46.03
2023-02-12T02:01:26.707Z,42.43
2023-02-12T02:04:54.972Z,35.27
2023-02-12T02:08:19.129Z,36.43
2023-02-12T02:12:01.372Z,42.83
2023-02-12T02:15:27.091Z,34.60
2023-02-12T02:18:56.818Z,36.70
2023-02-12T02:22:30.698Z,33.87
2023-02-12T02:26:23.628Z,36.63
2023-02-12T02:30:14.337Z,37.43
2023-02-12T02:33:44.601Z,37.43
2023-02-12T02:37:16.820Z,35.53
2023-02-12T02:40:47.814Z,33.17
2023-02-12T02:44:17.614Z,34.10
2023-02-12T02:47:46.625Z,44.43
2023-02-12T02:51:15.199Z,36.50
2023-02-12T02:54:43.549Z,40.80
2023-02-12T02:58:11.665Z,36.37
2023-02-12T03:01:41.465Z,37.27
2023-02-12T03:05:10.822Z,34.53
2023-02-12T03:08:40.737Z,37.00
2023-02-12T03:12:09.724Z,34.37
2023-02-12T03:15:36.847Z,31.57
2023-02-12T03:19:07.086Z,39.13
2023-02-12T03:22:35.333Z,32.03
2023-02-12T03:26:04.801Z,37.70
2023-02-12T03:29:28.389Z,36.47
2023-02-12T03:32:59.244Z,36.87
2023-02-12T03:36:34.462Z,36.20
2023-02-12T03:40:07.790Z,39.80
2023-02-12T03:43:34.538Z,35.90
2023-02-12T03:47:05.354Z,35.27
2023-02-12T03:50:34.626Z,38.37
2023-02-12T03:53:58.679Z,40.47
2023-02-12T03:57:30.454Z,36.33
2023-02-12T04:00:54.071Z,38.90
2023-02-12T04:04:18.549Z,43.00
2023-02-12T04:07:42.072Z,37.47
2023-02-12T04:11:14.094Z,36.33
2023-02-12T04:14:47.226Z,38.53
2023-02-12T04:18:19.089Z,38.37
2023-02-12T04:21:54.486Z,40.27
2023-02-12T04:25:27.293Z,39.00
2023-02-12T04:29:00.512Z,35.03
2023-02-12T04:32:33.482Z,36.67
2023-02-12T04:36:03.574Z,35.30
2023-02-12T04:39:30.216Z,38.77
2023-02-12T04:42:54.971Z,36.47
2023-02-12T04:46:18.747Z,35.33
2023-02-12T04:49:44.272Z,32.27
2023-02-12T04:53:08.210Z,35.80
2023-02-12T04:56:31.710Z,37.90
2023-02-12T04:59:55.234Z,35.17
2023-02-12T05:03:18.757Z,34.80
2023-02-12T05:06:44.581Z,34.40
2023-02-12T05:10:09.417Z,34.83
2023-02-12T05:13:33.092Z,33.93
2023-02-12T05:16:56.636Z,34.97
2023-02-12T05:20:20.529Z,30.93
2023-02-12T05:23:45.532Z,37.80
2023-02-12T05:27:09.343Z,35.50
2023-02-12T05:30:32.912Z,41.57
2023-02-12T05:33:56.492Z,35.90
2023-02-12T05:37:20.048Z,38.50
2023-02-12T05:40:45.061Z,34.67
2023-02-12T05:44:08.893Z,35.37
2023-02-12T05:47:32.519Z,35.53
2023-02-12T05:50:56.336Z,34.73
2023-02-12T05:54:19.916Z,34.90
2023-02-12T05:57:44.864Z,35.07
2023-02-12T06:01:14.668Z,34.67
2023-02-12T06:04:38.544Z,35.00
2023-02-12T06:08:02.150Z,37.60
2023-02-12T06:11:26.020Z,42.23
2023-02-12T06:14:51.013Z,42.17
2023-02-12T06:18:15.348Z,36.13
2023-02-12T06:21:39.264Z,39.93
2023-02-12T06:25:02.889Z,42.43
2023-02-12T06:28:26.674Z,42.27
2023-02-12T06:31:51.785Z,40.97
2023-02-12T06:35:15.527Z,39.47
2023-02-12T06:38:39.165Z,40.03
2023-02-12T06:42:02.746Z,45.50
2023-02-12T06:45:26.380Z,38.47
2023-02-12T06:48:54.523Z,45.10
2023-02-12T06:52:18.075Z,45.17
2023-02-12T06:55:41.607Z,49.87
2023-02-12T06:59:05.130Z,61.83
2023-02-12T07:02:32.583Z,49.70
2023-02-12T07:05:58.121Z,52.00
2023-02-12T07:09:22.674Z,48.03
2023-02-12T07:12:47.151Z,57.20
2023-02-12T07:16:14.373Z,46.40
2023-02-12T07:19:41.366Z,42.37
2023-02-12T07:23:07.580Z,49.83
2023-02-12T07:26:31.269Z,45.87
2023-02-12T07:29:55.543Z,49.00
2023-02-12T07:33:19.945Z,55.50
2023-02-12T07:36:43.571Z,45.03
2023-02-12T07:40:10.573Z,49.77
2023-02-12T07:43:34.110Z,48.30
2023-02-12T07:46:57.701Z,49.93
2023-02-12T07:50:21.463Z,48.77
2023-02-12T07:53:45.089Z,47.80
2023-02-12T07:57:10.027Z,50.07
2023-02-12T08:00:33.607Z,46.57
2023-02-12T08:04:00.384Z,58.93
2023-02-12T08:07:25.088Z,48.63
2023-02-12T08:10:48.871Z,47.70
2023-02-12T08:14:15.542Z,48.47
2023-02-12T08:17:39.874Z,44.87
2023-02-12T08:21:05.094Z,49.50
2023-02-12T08:24:28.738Z,43.57
2023-02-12T08:27:52.418Z,44.33
2023-02-12T08:31:19.969Z,50.13
2023-02-12T08:34:43.591Z,50.03
2023-02-12T08:38:07.450Z,48.17
2023-02-12T08:41:31.580Z,40.80
2023-02-12T08:44:55.125Z,42.80
2023-02-12T08:48:20.550Z,40.80
2023-02-12T08:51:46.091Z,41.30
2023-02-12T08:55:10.015Z,44.50
2023-02-12T08:58:33.849Z,43.53
2023-02-12T09:01:57.446Z,43.27
2023-02-12T09:05:22.387Z,43.77
2023-02-12T09:08:46.428Z,43.57
2023-02-12T09:12:10.431Z,48.40
2023-02-12T09:15:38.270Z,47.97
2023-02-12T09:19:02.658Z,46.33
2023-02-12T09:22:27.585Z,46.83
2023-02-12T09:25:51.160Z,43.00
2023-02-12T09:29:14.895Z,40.80
2023-02-12T09:32:38.500Z,54.90
2023-02-12T09:36:04.132Z,45.57
2023-02-12T09:39:30.738Z,45.73
2023-02-12T09:43:18.575Z,49.73
2023-02-12T09:46:49.213Z,45.13
2023-02-12T09:50:28.182Z,43.90
2023-02-12T09:54:01.218Z,41.90
2023-02-12T09:57:31.135Z,42.60
2023-02-12T10:00:55.338Z,46.07
2023-02-12T10:04:19.408Z,39.63
2023-02-12T10:07:57.568Z,40.30
2023-02-12T10:11:39.210Z,38.10
2023-02-12T10:15:18.828Z,35.70
2023-02-12T10:18:59.426Z,33.83
2023-02-12T10:22:33.762Z,32.53
2023-02-12T10:25:59.407Z,37.00
2023-02-12T10:29:26.356Z,32.23
2023-02-12T10:32:54.988Z,30.80
2023-02-12T10:36:33.979Z,26.77
2023-02-12T10:40:01.026Z,30.73
2023-02-12T10:43:25.468Z,32.80
2023-02-12T10:46:49.017Z,28.57
2023-02-12T10:50:25.586Z,29.63
2023-02-12T10:53:49.406Z,27.50
2023-02-12T10:57:20.855Z,24.60
2023-02-12T11:00:44.386Z,32.23
2023-02-12T11:04:22.551Z,31.63
2023-02-12T11:07:51.615Z,27.00
2023-02-12T11:11:20.173Z,31.57
2023-02-12T11:14:49.974Z,33.60
2023-02-12T11:18:25.189Z,24.40
2023-02-12T11:21:49.037Z,24.33
2023-02-12T11:25:17.887Z,25.93
2023-02-12T11:28:54.846Z,24.87
2023-02-12T11:32:21.280Z,26.40
2023-02-12T11:35:53.669Z,20.90
2023-02-12T11:39:22.819Z,22.23
2023-02-12T11:42:52.508Z,20.93
2023-02-12T11:46:22.339Z,22.60
2023-02-12T11:49:53.246Z,23.00
2023-02-12T11:53:23.103Z,18.57
2023-02-12T11:56:47.758Z,20.60
2023-02-12T12:00:18.490Z,21.70
2023-02-12T12:03:54.156Z,20.00
2023-02-12T12:07:23.127Z,22.03
2023-02-12T12:10:51.363Z,19.93
2023-02-12T12:14:21.644Z,20.60
2023-02-12T12:18:08.254Z,24.40
2023-02-12T12:21:41.362Z,23.27
2023-02-12T12:25:13.934Z,26.07
2023-02-12T12:28:45.190Z,19.33
2023-02-12T12:32:13.039Z,14.70
2023-02-12T12:35:49.884Z,18.60
2023-02-12T12:39:23.911Z,18.10
2023-02-12T12:43:15.443Z,20.93
2023-02-12T12:47:01.423Z,15.93
2023-02-12T12:51:02.027Z,11.53
2023-02-12T12:54:39.165Z,11.93
2023-02-12T12:58:13.915Z,12.53
2023-02-12T13:02:00.920Z,14.53
2023-02-12T13:05:52.319Z,10.73
2023-02-12T13:09:30.624Z,9.10
2023-02-12T13:13:05.034Z,13.47
2023-02-12T13:16:33.766Z,12.07
2023-02-12T13:20:07.770Z,13.47
2023-02-12T13:23:42.056Z,11.13
2023-02-12T13:27:09.430Z,13.10
2023-02-12T13:30:38.699Z,12.10
2023-02-12T13:34:04.817Z,12.17
2023-02-12T13:37:38.922Z,11.07
2023-02-12T13:41:05.787Z,10.33
2023-02-12T13:44:36.662Z,8.40
2023-02-12T13:48:10.886Z,9.60
2023-02-12T13:51:45.013Z,7.83
2023-02-12T13:55:24.799Z,8.20
2023-02-12T13:58:51.113Z,12.70
2023-02-12T14:02:49.229Z,8.37
2023-02-12T14:06:17.840Z,8.57
2023-02-12T14:09:43.495Z,12.43
2023-02-12T14:13:16.772Z,8.90
2023-02-12T14:16:41.820Z,8.50
2023-02-12T14:20:24.025Z,10.50
2023-02-12T14:23:50.608Z,9.60
2023-02-12T14:27:37.292Z,8.80
2023-02-12T14:31:43.826Z,8.13
2023-02-12T14:35:35.601Z,10.23
2023-02-12T14:39:02.429Z,12.10
2023-02-12T14:42:55.529Z,12.03
2023-02-12T14:46:46.492Z,9.20
2023-02-12T14:50:17.851Z,9.43
2023-02-12T14:53:43.830Z,9.30
2023-02-12T14:57:10.597Z,8.10
2023-02-12T15:00:39.015Z,8.50
2023-02-12T15:04:12.422Z,9.83
2023-02-12T15:07:43.354Z,13.40
2023-02-12T15:11:18.209Z,10.13
2023-02-12T15:14:47.439Z,10.23
2023-02-12T15:18:17.411Z,11.60
2023-02-12T15:21:42.468Z,13.50
2023-02-12T15:25:28.795Z,9.23
2023-02-12T15:28:54.604Z,10.00
2023-02-12T15:32:23.697Z,8.47
2023-02-12T15:35:47.436Z,8.80
2023-02-12T15:39:18.726Z,8.60
2023-02-12T15:42:42.920Z,8.63
2023-02-12T15:46:17.060Z,11.17
2023-02-12T15:49:42.610Z,9.03
2023-02-12T15:53:06.212Z,10.37
2023-02-12T15:56:30.562Z,10.43
2023-02-12T15:59:57.994Z,9.30
2023-02-12T16:03:29.048Z,9.13
2023-02-12T16:07:01.313Z,9.20
2023-02-12T16:10:34.232Z,11.17
2023-02-12T16:14:10.146Z,9.80
2023-02-12T16:17:38.429Z,10.73
2023-02-12T16:21:15.492Z,10.33
2023-02-12T16:24:41.299Z,9.93
2023-02-12T16:28:10.437Z,9.70
2023-02-12T16:31:35.295Z,11.07
2023-02-12T16:35:02.410Z,9.77
2023-02-12T16:38:43.650Z,11.80
2023-02-12T16:42:18.954Z,13.90
2023-02-12T16:50:49.973Z,10.00
2023-02-12T16:54:30.546Z,11.33
2023-02-12T16:57:54.177Z,12.37
2023-02-12T17:01:25.450Z,12.27
2023-02-12T17:04:49.943Z,13.83
2023-02-12T17:08:15.297Z,12.83
2023-02-12T17:11:40.468Z,13.03
2023-02-12T17:15:05.419Z,13.50
2023-02-12T17:18:32.596Z,12.50
2023-02-12T17:21:56.381Z,13.50
2023-02-12T17:25:20.396Z,15.40
2023-02-12T17:28:45.282Z,13.07
2023-02-12T17:32:09.205Z,16.63
2023-02-12T17:35:32.812Z,11.23
2023-02-12T17:38:56.536Z,13.27
2023-02-12T17:42:20.068Z,13.40
2023-02-12T17:45:45.096Z,12.63
2023-02-12T17:49:08.595Z,14.83
2023-02-12T17:52:32.132Z,12.43
2023-02-12T17:55:55.785Z,12.57
2023-02-12T17:59:19.334Z,15.33
2023-02-12T18:02:44.195Z,13.70
2023-02-12T18:06:09.165Z,11.53
2023-02-12T18:09:32.922Z,12.90
2023-02-12T18:12:56.441Z,15.30
2023-02-12T18:16:20.467Z,11.37
2023-02-12T18:19:45.371Z,16.37
2023-02-12T18:23:09.391Z,14.23
2023-02-12T18:26:33.144Z,14.10
2023-02-12T18:29:57.361Z,14.13
2023-02-12T18:33:20.992Z,15.30
2023-02-12T18:36:45.965Z,14.70
2023-02-12T18:40:10.236Z,12.50
2023-02-12T18:43:35.942Z,17.60
2023-02-12T18:47:00.016Z,14.50
2023-02-12T18:50:23.552Z,15.87
2023-02-12T18:53:48.637Z,15.37
2023-02-12T18:57:18.398Z,16.07
2023-02-12T19:00:46.788Z,20.93
2023-02-12T19:04:13.542Z,15.07
2023-02-12T19:07:37.605Z,17.90
2023-02-12T19:11:02.572Z,14.33
2023-02-12T19:14:27.652Z,16.83
2023-02-12T19:17:51.221Z,15.50
2023-02-12T19:21:16.778Z,16.47
2023-02-12T19:24:46.508Z,15.37
2023-02-12T19:28:12.727Z,19.50
2023-02-12T19:31:38.214Z,15.87
2023-02-12T19:35:02.209Z,17.43
2023-02-12T19:38:25.848Z,19.47
2023-02-12T19:41:50.173Z,20.63
2023-02-12T19:45:16.156Z,16.00
2023-02-12T19:48:40.244Z,15.90
2023-02-12T19:52:03.869Z,15.63
2023-02-12T19:55:27.517Z,16.13
2023-02-12T19:58:51.100Z,15.97
2023-02-12T20:02:16.156Z,16.33
2023-02-12T20:05:45.943Z,18.93
2023-02-12T20:09:11.550Z,16.40
2023-02-12T20:12:36.128Z,15.10
2023-02-12T20:16:02.829Z,16.30
2023-02-12T20:19:30.945Z,16.13
2023-02-12T20:22:54.527Z,16.03
2023-02-12T20:26:20.725Z,15.97
2023-02-12T20:29:45.126Z,14.27
2023-02-12T20:33:09.871Z,14.63
2023-02-12T20:36:36.785Z,14.00
2023-02-12T20:40:00.849Z,14.87
2023-02-12T20:43:25.205Z,15.50
2023-02-12T20:46:52.546Z,13.80
2023-02-12T20:50:20.161Z,13.97
2023-02-12T20:53:46.074Z,14.37
2023-02-12T20:57:09.690Z,12.73
2023-02-12T21:00:33.294Z,15.40
2023-02-12T21:03:57.397Z,13.47
2023-02-12T21:07:21.357Z,11.90
2023-02-12T21:10:46.340Z,13.97
2023-02-12T21:14:26.521Z,15.43
2023-02-12T21:17:50.470Z,13.33
2023-02-12T21:21:15.938Z,15.80
2023-02-12T21:24:39.566Z,17.87
2023-02-12T21:28:04.509Z,15.47
2023-02-12T21:31:30.372Z,17.20
2023-02-12T21:34:54.058Z,17.83
2023-02-12T21:38:17.808Z,14.83
2023-02-12T21:41:43.144Z,15.23
2023-02-12T21:45:09.521Z,17.13
2023-02-12T21:48:33.476Z,17.73
2023-02-12T21:51:59.224Z,14.00
2023-02-12T21:55:23.295Z,15.80
2023-02-12T21:58:48.144Z,15.23
2023-02-12T22:02:14.858Z,13.47
2023-02-12T22:05:38.503Z,15.77
2023-02-12T22:09:03.362Z,14.27
2023-02-12T22:12:30.211Z,13.63
2023-02-12T22:15:53.761Z,15.97
2023-02-12T22:19:19.256Z,14.70
2023-02-12T22:22:42.923Z,19.60
2023-02-12T22:26:07.410Z,16.93
2023-02-12T22:29:30.965Z,11.60
2023-02-12T22:32:55.459Z,14.80
2023-02-12T22:36:22.404Z,11.43
2023-02-12T22:39:46.323Z,13.60
2023-02-12T22:43:09.922Z,14.57
2023-02-12T22:46:36.002Z,12.03
2023-02-12T22:49:59.744Z,14.80
2023-02-12T22:53:26.072Z,13.00
2023-02-12T22:56:51.556Z,13.90
2023-02-12T23:00:16.529Z,12.77
2023-02-12T23:03:40.147Z,14.77
2023-02-12T23:07:03.826Z,14.80
2023-02-12T23:10:28.760Z,14.10
2023-02-12T23:13:52.831Z,14.77
2023-02-12T23:17:16.666Z,16.17
2023-02-12T23:20:41.507Z,14.13
2023-02-12T23:24:05.638Z,19.00
2023-02-12T23:27:39.000Z,17.10
2023-02-12T23:31:05.554Z,15.63
2023-02-12T23:34:29.563Z,14.90
2023-02-12T23:37:54.936Z,20.43
2023-02-12T23:41:20.920Z,20.23
2023-02-12T23:44:46.088Z,19.70
2023-02-12T23:48:10.957Z,18.43
2023-02-12T23:51:35.242Z,15.87
2023-02-12T23:54:59.907Z,16.80
2023-02-12T23:58:24.389Z,15.80
